sensor_id;sensor_type;location;lat;lon;timestamp;P1;durP1;ratioP1;P2;durP2;ratioP2
63008;SDS011;49099;28.428;-16.488;2023-07-02T00:00:39;22.20;;;8.13;;
63008;SDS011;49099;28.428;-16.488;2023-07-02T00:03:07;18.33;;;7.13;;
63008;SDS011;49099;28.428;-16.488;2023-07-02T00:05:34;24.38;;;8.02;;
63008;SDS011;49099;28.428;-16.488;2023-07-02T00:08:01;20.33;;;7.70;;
63008;SDS011;49099;28.428;-16.488;2023-07-02T00:10:28;20.65;;;7.50;;
63008;SDS011;49099;28.428;-16.488;2023-07-02T00:12:55;25.35;;;8.55;;
63008;SDS011;49099;28.428;-16.488;2023-07-02T00:15:22;22.02;;;7.68;;
63008;SDS011;49099;28.428;-16.488;2023-07-02T00:17:50;22.88;;;8.00;;
63008;SDS011;49099;28.428;-16.488;2023-07-02T00:20:17;21.55;;;7.20;;
63008;SDS011;49099;28.428;-16.488;2023-07-02T00:22:46;21.98;;;8.00;;
63008;SDS011;49099;28.428;-16.488;2023-07-02T00:25:13;23.02;;;7.82;;
63008;SDS011;49099;28.428;-16.488;2023-07-02T00:27:41;27.50;;;7.57;;
63008;SDS011;49099;28.428;-16.488;2023-07-02T00:30:09;28.73;;;8.90;;
63008;SDS011;49099;28.428;-16.488;2023-07-02T00:32:36;23.13;;;7.22;;
63008;SDS011;49099;28.428;-16.488;2023-07-02T00:35:03;19.63;;;7.20;;
63008;SDS011;49099;28.428;-16.488;2023-07-02T00:37:31;18.63;;;7.05;;
63008;SDS011;49099;28.428;-16.488;2023-07-02T00:39:58;22.70;;;7.30;;
63008;SDS011;49099;28.428;-16.488;2023-07-02T00:42:25;24.00;;;7.45;;
63008;SDS011;49099;28.428;-16.488;2023-07-02T00:44:56;24.60;;;7.47;;
63008;SDS011;49099;28.428;-16.488;2023-07-02T00:47:32;17.45;;;6.80;;
63008;SDS011;49099;28.428;-16.488;2023-07-02T00:50:02;20.20;;;7.30;;
63008;SDS011;49099;28.428;-16.488;2023-07-02T00:52:29;20.45;;;7.25;;
63008;SDS011;49099;28.428;-16.488;2023-07-02T00:54:56;21.75;;;7.35;;
63008;SDS011;49099;28.428;-16.488;2023-07-02T00:57:24;21.75;;;7.72;;
63008;SDS011;49099;28.428;-16.488;2023-07-02T00:59:57;22.77;;;7.50;;
63008;SDS011;49099;28.428;-16.488;2023-07-02T01:02:27;24.10;;;7.22;;
63008;SDS011;49099;28.428;-16.488;2023-07-02T01:04:56;22.38;;;7.75;;
63008;SDS011;49099;28.428;-16.488;2023-07-02T01:07:27;23.83;;;7.88;;
63008;SDS011;49099;28.428;-16.488;2023-07-02T01:09:55;24.27;;;7.68;;
63008;SDS011;49099;28.428;-16.488;2023-07-02T01:12:22;19.55;;;6.82;;
63008;SDS011;49099;28.428;-16.488;2023-07-02T01:14:51;22.83;;;7.82;;
63008;SDS011;49099;28.428;-16.488;2023-07-02T01:17:19;22.60;;;7.53;;
63008;SDS011;49099;28.428;-16.488;2023-07-02T01:19:48;20.20;;;7.18;;
63008;SDS011;49099;28.428;-16.488;2023-07-02T01:22:21;17.45;;;6.60;;
63008;SDS011;49099;28.428;-16.488;2023-07-02T01:24:50;18.88;;;7.03;;
63008;SDS011;49099;28.428;-16.488;2023-07-02T01:27:18;22.02;;;7.32;;
63008;SDS011;49099;28.428;-16.488;2023-07-02T01:29:45;18.75;;;6.60;;
63008;SDS011;49099;28.428;-16.488;2023-07-02T01:32:14;18.48;;;6.47;;
63008;SDS011;49099;28.428;-16.488;2023-07-02T01:34:41;17.50;;;7.15;;
63008;SDS011;49099;28.428;-16.488;2023-07-02T01:37:15;20.95;;;6.45;;
63008;SDS011;49099;28.428;-16.488;2023-07-02T01:39:46;19.73;;;6.60;;
63008;SDS011;49099;28.428;-16.488;2023-07-02T01:42:14;22.08;;;6.53;;
63008;SDS011;49099;28.428;-16.488;2023-07-02T01:44:43;24.83;;;6.82;;
63008;SDS011;49099;28.428;-16.488;2023-07-02T01:47:11;24.13;;;7.50;;
63008;SDS011;49099;28.428;-16.488;2023-07-02T01:49:39;18.63;;;6.75;;
63008;SDS011;49099;28.428;-16.488;2023-07-02T01:52:06;20.13;;;6.63;;
63008;SDS011;49099;28.428;-16.488;2023-07-02T01:54:34;17.90;;;6.10;;
63008;SDS011;49099;28.428;-16.488;2023-07-02T01:57:02;21.33;;;5.97;;
63008;SDS011;49099;28.428;-16.488;2023-07-02T01:59:30;22.98;;;6.60;;
63008;SDS011;49099;28.428;-16.488;2023-07-02T02:01:57;18.42;;;6.00;;
63008;SDS011;49099;28.428;-16.488;2023-07-02T02:04:24;25.40;;;6.70;;
63008;SDS011;49099;28.428;-16.488;2023-07-02T02:06:52;19.15;;;5.90;;
63008;SDS011;49099;28.428;-16.488;2023-07-02T02:09:19;16.80;;;5.75;;
63008;SDS011;49099;28.428;-16.488;2023-07-02T02:11:49;20.42;;;6.85;;
63008;SDS011;49099;28.428;-16.488;2023-07-02T02:14:19;20.75;;;5.55;;
63008;SDS011;49099;28.428;-16.488;2023-07-02T02:16:46;21.67;;;6.25;;
63008;SDS011;49099;28.428;-16.488;2023-07-02T02:19:13;21.25;;;6.50;;
63008;SDS011;49099;28.428;-16.488;2023-07-02T02:21:44;20.08;;;6.00;;
63008;SDS011;49099;28.428;-16.488;2023-07-02T02:24:11;21.13;;;6.25;;
63008;SDS011;49099;28.428;-16.488;2023-07-02T02:26:38;24.83;;;6.07;;
63008;SDS011;49099;28.428;-16.488;2023-07-02T02:29:05;18.77;;;5.63;;
63008;SDS011;49099;28.428;-16.488;2023-07-02T02:31:32;18.95;;;5.72;;
63008;SDS011;49099;28.428;-16.488;2023-07-02T02:33:59;13.98;;;5.10;;
63008;SDS011;49099;28.428;-16.488;2023-07-02T02:36:27;17.50;;;5.43;;
63008;SDS011;49099;28.428;-16.488;2023-07-02T02:38:54;17.30;;;6.25;;
63008;SDS011;49099;28.428;-16.488;2023-07-02T02:41:21;17.02;;;5.22;;
63008;SDS011;49099;28.428;-16.488;2023-07-02T02:43:49;15.75;;;5.13;;
63008;SDS011;49099;28.428;-16.488;2023-07-02T02:46:20;16.65;;;5.35;;
63008;SDS011;49099;28.428;-16.488;2023-07-02T02:48:51;23.80;;;5.97;;
63008;SDS011;49099;28.428;-16.488;2023-07-02T02:51:18;16.77;;;5.72;;
63008;SDS011;49099;28.428;-16.488;2023-07-02T02:53:45;19.63;;;5.63;;
63008;SDS011;49099;28.428;-16.488;2023-07-02T02:56:13;17.27;;;5.60;;
63008;SDS011;49099;28.428;-16.488;2023-07-02T02:58:40;19.38;;;5.93;;
63008;SDS011;49099;28.428;-16.488;2023-07-02T03:01:08;14.90;;;5.95;;
63008;SDS011;49099;28.428;-16.488;2023-07-02T03:03:41;17.55;;;5.50;;
63008;SDS011;49099;28.428;-16.488;2023-07-02T03:06:14;17.63;;;5.43;;
63008;SDS011;49099;28.428;-16.488;2023-07-02T03:08:42;20.63;;;5.90;;
63008;SDS011;49099;28.428;-16.488;2023-07-02T03:11:09;19.17;;;5.72;;
63008;SDS011;49099;28.428;-16.488;2023-07-02T03:13:37;20.20;;;5.72;;
63008;SDS011;49099;28.428;-16.488;2023-07-02T03:16:04;20.05;;;6.20;;
63008;SDS011;49099;28.428;-16.488;2023-07-02T03:18:32;21.15;;;6.03;;
63008;SDS011;49099;28.428;-16.488;2023-07-02T03:20:59;18.23;;;6.40;;
63008;SDS011;49099;28.428;-16.488;2023-07-02T03:23:26;24.15;;;6.70;;
63008;SDS011;49099;28.428;-16.488;2023-07-02T03:25:53;22.45;;;6.18;;
63008;SDS011;49099;28.428;-16.488;2023-07-02T03:28:20;21.50;;;6.45;;
63008;SDS011;49099;28.428;-16.488;2023-07-02T03:30:48;18.70;;;6.28;;
63008;SDS011;49099;28.428;-16.488;2023-07-02T03:33:15;19.67;;;6.70;;
63008;SDS011;49099;28.428;-16.488;2023-07-02T03:35:42;20.23;;;6.13;;
63008;SDS011;49099;28.428;-16.488;2023-07-02T03:38:09;18.23;;;6.15;;
63008;SDS011;49099;28.428;-16.488;2023-07-02T03:40:37;16.75;;;5.93;;
63008;SDS011;49099;28.428;-16.488;2023-07-02T03:43:05;16.60;;;5.78;;
63008;SDS011;49099;28.428;-16.488;2023-07-02T03:45:32;19.27;;;6.13;;
63008;SDS011;49099;28.428;-16.488;2023-07-02T03:48:00;20.85;;;6.13;;
63008;SDS011;49099;28.428;-16.488;2023-07-02T03:50:27;20.23;;;6.07;;
63008;SDS011;49099;28.428;-16.488;2023-07-02T03:52:54;15.00;;;5.10;;
63008;SDS011;49099;28.428;-16.488;2023-07-02T03:55:21;18.58;;;5.70;;
63008;SDS011;49099;28.428;-16.488;2023-07-02T03:57:48;17.80;;;5.75;;
63008;SDS011;49099;28.428;-16.488;2023-07-02T04:00:16;19.23;;;5.90;;
63008;SDS011;49099;28.428;-16.488;2023-07-02T04:02:43;19.92;;;6.43;;
63008;SDS011;49099;28.428;-16.488;2023-07-02T04:05:11;23.05;;;7.20;;
63008;SDS011;49099;28.428;-16.488;2023-07-02T04:07:38;19.88;;;6.13;;
63008;SDS011;49099;28.428;-16.488;2023-07-02T04:10:05;27.40;;;7.40;;
63008;SDS011;49099;28.428;-16.488;2023-07-02T04:12:33;25.63;;;6.95;;
63008;SDS011;49099;28.428;-16.488;2023-07-02T04:15:00;23.60;;;6.15;;
63008;SDS011;49099;28.428;-16.488;2023-07-02T04:17:28;23.20;;;6.70;;
63008;SDS011;49099;28.428;-16.488;2023-07-02T04:19:56;19.05;;;6.35;;
63008;SDS011;49099;28.428;-16.488;2023-07-02T04:22:24;23.58;;;7.25;;
63008;SDS011;49099;28.428;-16.488;2023-07-02T04:24:51;21.30;;;6.47;;
63008;SDS011;49099;28.428;-16.488;2023-07-02T04:27:25;20.30;;;6.43;;
63008;SDS011;49099;28.428;-16.488;2023-07-02T04:30:12;19.75;;;6.57;;
63008;SDS011;49099;28.428;-16.488;2023-07-02T04:32:40;23.15;;;6.88;;
63008;SDS011;49099;28.428;-16.488;2023-07-02T04:35:08;20.95;;;6.55;;
63008;SDS011;49099;28.428;-16.488;2023-07-02T04:37:36;20.65;;;6.32;;
63008;SDS011;49099;28.428;-16.488;2023-07-02T04:40:03;20.67;;;6.32;;
63008;SDS011;49099;28.428;-16.488;2023-07-02T04:42:39;19.88;;;6.10;;
63008;SDS011;49099;28.428;-16.488;2023-07-02T04:45:14;20.88;;;6.45;;
63008;SDS011;49099;28.428;-16.488;2023-07-02T04:47:43;21.20;;;6.57;;
63008;SDS011;49099;28.428;-16.488;2023-07-02T04:50:11;19.42;;;6.60;;
63008;SDS011;49099;28.428;-16.488;2023-07-02T04:52:38;21.15;;;6.75;;
63008;SDS011;49099;28.428;-16.488;2023-07-02T04:55:05;21.20;;;6.20;;
63008;SDS011;49099;28.428;-16.488;2023-07-02T04:57:33;16.80;;;6.28;;
63008;SDS011;49099;28.428;-16.488;2023-07-02T05:00:00;18.73;;;6.50;;
63008;SDS011;49099;28.428;-16.488;2023-07-02T05:02:27;20.05;;;6.57;;
63008;SDS011;49099;28.428;-16.488;2023-07-02T05:04:55;19.85;;;6.40;;
63008;SDS011;49099;28.428;-16.488;2023-07-02T05:07:22;20.45;;;6.55;;
63008;SDS011;49099;28.428;-16.488;2023-07-02T05:09:49;18.77;;;7.15;;
63008;SDS011;49099;28.428;-16.488;2023-07-02T05:12:19;19.88;;;7.03;;
63008;SDS011;49099;28.428;-16.488;2023-07-02T05:14:46;20.73;;;7.65;;
63008;SDS011;49099;28.428;-16.488;2023-07-02T05:17:13;20.75;;;7.28;;
63008;SDS011;49099;28.428;-16.488;2023-07-02T05:19:41;23.67;;;8.00;;
63008;SDS011;49099;28.428;-16.488;2023-07-02T05:22:08;23.63;;;7.95;;
63008;SDS011;49099;28.428;-16.488;2023-07-02T05:24:36;19.58;;;8.25;;
63008;SDS011;49099;28.428;-16.488;2023-07-02T05:27:04;18.25;;;8.15;;
63008;SDS011;49099;28.428;-16.488;2023-07-02T05:29:31;19.52;;;8.35;;
63008;SDS011;49099;28.428;-16.488;2023-07-02T05:31:58;22.63;;;8.80;;
63008;SDS011;49099;28.428;-16.488;2023-07-02T05:34:25;21.17;;;8.60;;
63008;SDS011;49099;28.428;-16.488;2023-07-02T05:36:53;19.73;;;8.65;;
63008;SDS011;49099;28.428;-16.488;2023-07-02T05:39:20;20.25;;;9.05;;
63008;SDS011;49099;28.428;-16.488;2023-07-02T05:41:48;23.27;;;9.05;;
63008;SDS011;49099;28.428;-16.488;2023-07-02T05:44:15;22.77;;;9.32;;
63008;SDS011;49099;28.428;-16.488;2023-07-02T05:46:42;20.67;;;8.68;;
63008;SDS011;49099;28.428;-16.488;2023-07-02T05:49:09;20.83;;;8.60;;
63008;SDS011;49099;28.428;-16.488;2023-07-02T05:51:37;20.48;;;8.73;;
63008;SDS011;49099;28.428;-16.488;2023-07-02T05:54:04;21.63;;;8.90;;
63008;SDS011;49099;28.428;-16.488;2023-07-02T05:56:32;23.30;;;8.60;;
63008;SDS011;49099;28.428;-16.488;2023-07-02T05:58:59;24.25;;;8.73;;
63008;SDS011;49099;28.428;-16.488;2023-07-02T06:01:27;20.67;;;8.48;;
63008;SDS011;49099;28.428;-16.488;2023-07-02T06:03:54;21.23;;;8.82;;
63008;SDS011;49099;28.428;-16.488;2023-07-02T06:06:21;26.08;;;8.68;;
63008;SDS011;49099;28.428;-16.488;2023-07-02T06:08:51;24.50;;;9.20;;
63008;SDS011;49099;28.428;-16.488;2023-07-02T06:11:19;21.88;;;8.52;;
63008;SDS011;49099;28.428;-16.488;2023-07-02T06:13:46;26.52;;;8.60;;
63008;SDS011;49099;28.428;-16.488;2023-07-02T06:16:13;27.65;;;8.73;;
63008;SDS011;49099;28.428;-16.488;2023-07-02T06:18:40;22.95;;;8.50;;
63008;SDS011;49099;28.428;-16.488;2023-07-02T06:21:07;21.23;;;8.57;;
63008;SDS011;49099;28.428;-16.488;2023-07-02T06:23:44;20.25;;;8.50;;
63008;SDS011;49099;28.428;-16.488;2023-07-02T06:26:11;24.17;;;9.52;;
63008;SDS011;49099;28.428;-16.488;2023-07-02T06:28:38;22.08;;;8.60;;
63008;SDS011;49099;28.428;-16.488;2023-07-02T06:31:05;23.92;;;8.80;;
63008;SDS011;49099;28.428;-16.488;2023-07-02T06:33:33;23.70;;;8.73;;
63008;SDS011;49099;28.428;-16.488;2023-07-02T06:36:00;22.08;;;7.97;;
63008;SDS011;49099;28.428;-16.488;2023-07-02T06:38:27;20.20;;;9.35;;
63008;SDS011;49099;28.428;-16.488;2023-07-02T06:40:55;28.90;;;8.90;;
63008;SDS011;49099;28.428;-16.488;2023-07-02T06:43:22;20.88;;;8.80;;
63008;SDS011;49099;28.428;-16.488;2023-07-02T06:45:49;24.13;;;9.25;;
63008;SDS011;49099;28.428;-16.488;2023-07-02T06:48:16;24.55;;;8.40;;
63008;SDS011;49099;28.428;-16.488;2023-07-02T06:50:48;32.28;;;9.90;;
63008;SDS011;49099;28.428;-16.488;2023-07-02T06:53:16;31.73;;;9.68;;
63008;SDS011;49099;28.428;-16.488;2023-07-02T06:55:43;35.30;;;10.15;;
63008;SDS011;49099;28.428;-16.488;2023-07-02T06:58:10;31.15;;;10.40;;
63008;SDS011;49099;28.428;-16.488;2023-07-02T07:00:37;31.70;;;9.95;;
63008;SDS011;49099;28.428;-16.488;2023-07-02T07:03:04;28.05;;;10.20;;
63008;SDS011;49099;28.428;-16.488;2023-07-02T07:05:32;26.27;;;9.27;;
63008;SDS011;49099;28.428;-16.488;2023-07-02T07:07:59;25.80;;;9.90;;
63008;SDS011;49099;28.428;-16.488;2023-07-02T07:10:29;27.63;;;9.52;;
63008;SDS011;49099;28.428;-16.488;2023-07-02T07:13:01;22.13;;;9.38;;
63008;SDS011;49099;28.428;-16.488;2023-07-02T07:15:32;21.55;;;8.90;;
63008;SDS011;49099;28.428;-16.488;2023-07-02T07:18:03;20.20;;;8.95;;
63008;SDS011;49099;28.428;-16.488;2023-07-02T07:20:31;20.23;;;9.30;;
63008;SDS011;49099;28.428;-16.488;2023-07-02T07:22:58;23.73;;;9.38;;
63008;SDS011;49099;28.428;-16.488;2023-07-02T07:25:25;23.10;;;9.40;;
63008;SDS011;49099;28.428;-16.488;2023-07-02T07:27:53;24.90;;;9.55;;
63008;SDS011;49099;28.428;-16.488;2023-07-02T07:30:20;26.05;;;9.40;;
63008;SDS011;49099;28.428;-16.488;2023-07-02T07:32:51;29.35;;;10.10;;
63008;SDS011;49099;28.428;-16.488;2023-07-02T07:35:22;33.45;;;10.57;;
63008;SDS011;49099;28.428;-16.488;2023-07-02T07:37:49;24.65;;;9.48;;
63008;SDS011;49099;28.428;-16.488;2023-07-02T07:40:16;28.30;;;10.35;;
63008;SDS011;49099;28.428;-16.488;2023-07-02T07:42:43;31.63;;;11.13;;
63008;SDS011;49099;28.428;-16.488;2023-07-02T07:45:11;28.92;;;11.10;;
63008;SDS011;49099;28.428;-16.488;2023-07-02T07:47:38;31.17;;;11.10;;
63008;SDS011;49099;28.428;-16.488;2023-07-02T07:50:06;28.88;;;10.95;;
63008;SDS011;49099;28.428;-16.488;2023-07-02T07:52:38;36.28;;;11.63;;
63008;SDS011;49099;28.428;-16.488;2023-07-02T07:55:06;28.60;;;10.75;;
63008;SDS011;49099;28.428;-16.488;2023-07-02T07:57:34;30.65;;;11.20;;
63008;SDS011;49099;28.428;-16.488;2023-07-02T08:00:03;26.75;;;10.65;;
63008;SDS011;49099;28.428;-16.488;2023-07-02T08:02:32;29.10;;;11.05;;
63008;SDS011;49099;28.428;-16.488;2023-07-02T08:04:59;30.35;;;11.27;;
63008;SDS011;49099;28.428;-16.488;2023-07-02T08:07:26;31.13;;;11.75;;
63008;SDS011;49099;28.428;-16.488;2023-07-02T08:09:54;33.65;;;11.95;;
63008;SDS011;49099;28.428;-16.488;2023-07-02T08:12:21;33.17;;;11.85;;
63008;SDS011;49099;28.428;-16.488;2023-07-02T08:14:48;31.52;;;12.07;;
63008;SDS011;49099;28.428;-16.488;2023-07-02T08:17:16;37.10;;;12.05;;
63008;SDS011;49099;28.428;-16.488;2023-07-02T08:19:43;35.03;;;12.65;;
63008;SDS011;49099;28.428;-16.488;2023-07-02T08:22:10;35.35;;;12.75;;
63008;SDS011;49099;28.428;-16.488;2023-07-02T08:24:38;33.03;;;12.27;;
63008;SDS011;49099;28.428;-16.488;2023-07-02T08:27:07;34.85;;;12.50;;
63008;SDS011;49099;28.428;-16.488;2023-07-02T08:29:34;32.50;;;12.48;;
63008;SDS011;49099;28.428;-16.488;2023-07-02T08:32:01;34.65;;;12.23;;
63008;SDS011;49099;28.428;-16.488;2023-07-02T08:34:29;33.08;;;12.07;;
63008;SDS011;49099;28.428;-16.488;2023-07-02T08:36:56;29.45;;;12.05;;
63008;SDS011;49099;28.428;-16.488;2023-07-02T08:39:23;31.20;;;11.70;;
63008;SDS011;49099;28.428;-16.488;2023-07-02T08:41:50;31.73;;;12.10;;
63008;SDS011;49099;28.428;-16.488;2023-07-02T08:44:19;30.88;;;12.50;;
63008;SDS011;49099;28.428;-16.488;2023-07-02T08:46:48;31.77;;;12.15;;
63008;SDS011;49099;28.428;-16.488;2023-07-02T08:49:17;35.22;;;12.98;;
63008;SDS011;49099;28.428;-16.488;2023-07-02T08:51:45;35.20;;;13.00;;
63008;SDS011;49099;28.428;-16.488;2023-07-02T08:54:13;32.58;;;12.32;;
63008;SDS011;49099;28.428;-16.488;2023-07-02T08:56:41;34.17;;;14.18;;
63008;SDS011;49099;28.428;-16.488;2023-07-02T08:59:09;33.90;;;12.63;;
63008;SDS011;49099;28.428;-16.488;2023-07-02T09:01:46;31.77;;;12.55;;
63008;SDS011;49099;28.428;-16.488;2023-07-02T09:04:18;32.40;;;12.75;;
63008;SDS011;49099;28.428;-16.488;2023-07-02T09:06:47;32.42;;;12.95;;
63008;SDS011;49099;28.428;-16.488;2023-07-02T09:09:15;35.88;;;13.15;;
63008;SDS011;49099;28.428;-16.488;2023-07-02T09:11:51;34.15;;;13.40;;
63008;SDS011;49099;28.428;-16.488;2023-07-02T09:14:28;31.70;;;13.13;;
63008;SDS011;49099;28.428;-16.488;2023-07-02T09:17:06;30.45;;;11.50;;
63008;SDS011;49099;28.428;-16.488;2023-07-02T09:19:35;27.42;;;10.50;;
63008;SDS011;49099;28.428;-16.488;2023-07-02T09:22:03;32.05;;;11.23;;
63008;SDS011;49099;28.428;-16.488;2023-07-02T09:24:31;29.27;;;11.40;;
63008;SDS011;49099;28.428;-16.488;2023-07-02T09:26:59;32.05;;;11.20;;
63008;SDS011;49099;28.428;-16.488;2023-07-02T09:29:28;33.13;;;11.68;;
63008;SDS011;49099;28.428;-16.488;2023-07-02T09:31:58;29.10;;;11.32;;
63008;SDS011;49099;28.428;-16.488;2023-07-02T09:34:36;24.50;;;10.25;;
63008;SDS011;49099;28.428;-16.488;2023-07-02T09:37:07;34.78;;;12.10;;
63008;SDS011;49099;28.428;-16.488;2023-07-02T09:39:35;29.92;;;11.68;;
63008;SDS011;49099;28.428;-16.488;2023-07-02T09:42:06;33.38;;;11.32;;
63008;SDS011;49099;28.428;-16.488;2023-07-02T09:44:34;34.08;;;11.32;;
63008;SDS011;49099;28.428;-16.488;2023-07-02T09:47:02;28.88;;;10.90;;
63008;SDS011;49099;28.428;-16.488;2023-07-02T09:49:34;28.58;;;11.05;;
63008;SDS011;49099;28.428;-16.488;2023-07-02T09:52:04;31.65;;;10.18;;
63008;SDS011;49099;28.428;-16.488;2023-07-02T09:54:33;25.20;;;11.10;;
63008;SDS011;49099;28.428;-16.488;2023-07-02T09:57:00;24.05;;;9.35;;
63008;SDS011;49099;28.428;-16.488;2023-07-02T09:59:28;28.67;;;9.52;;
63008;SDS011;49099;28.428;-16.488;2023-07-02T10:01:56;25.67;;;9.30;;
63008;SDS011;49099;28.428;-16.488;2023-07-02T10:04:24;27.30;;;8.70;;
63008;SDS011;49099;28.428;-16.488;2023-07-02T10:06:53;23.10;;;8.52;;
63008;SDS011;49099;28.428;-16.488;2023-07-02T10:09:33;26.13;;;9.30;;
63008;SDS011;49099;28.428;-16.488;2023-07-02T10:12:17;24.20;;;8.27;;
63008;SDS011;49099;28.428;-16.488;2023-07-02T10:14:48;38.13;;;10.32;;
63008;SDS011;49099;28.428;-16.488;2023-07-02T10:19:56;23.60;;;8.85;;
63008;SDS011;49099;28.428;-16.488;2023-07-02T10:22:26;25.33;;;8.98;;
63008;SDS011;49099;28.428;-16.488;2023-07-02T10:24:57;30.40;;;9.38;;
63008;SDS011;49099;28.428;-16.488;2023-07-02T10:27:38;30.17;;;9.35;;
63008;SDS011;49099;28.428;-16.488;2023-07-02T10:30:07;22.35;;;8.52;;
63008;SDS011;49099;28.428;-16.488;2023-07-02T10:32:36;23.05;;;9.07;;
63008;SDS011;49099;28.428;-16.488;2023-07-02T10:35:14;25.95;;;10.00;;
63008;SDS011;49099;28.428;-16.488;2023-07-02T10:37:43;27.67;;;9.13;;
63008;SDS011;49099;28.428;-16.488;2023-07-02T10:40:10;23.65;;;9.07;;
63008;SDS011;49099;28.428;-16.488;2023-07-02T10:42:46;28.30;;;9.63;;
63008;SDS011;49099;28.428;-16.488;2023-07-02T10:45:17;29.50;;;9.55;;
63008;SDS011;49099;28.428;-16.488;2023-07-02T10:47:45;31.95;;;8.57;;
63008;SDS011;49099;28.428;-16.488;2023-07-02T10:50:19;24.33;;;8.55;;
63008;SDS011;49099;28.428;-16.488;2023-07-02T10:52:48;23.50;;;8.23;;
63008;SDS011;49099;28.428;-16.488;2023-07-02T10:55:19;24.95;;;8.05;;
63008;SDS011;49099;28.428;-16.488;2023-07-02T10:57:47;22.75;;;8.65;;
63008;SDS011;49099;28.428;-16.488;2023-07-02T11:00:19;24.00;;;8.38;;
63008;SDS011;49099;28.428;-16.488;2023-07-02T11:02:47;21.88;;;7.60;;
63008;SDS011;49099;28.428;-16.488;2023-07-02T11:05:14;24.10;;;7.80;;
63008;SDS011;49099;28.428;-16.488;2023-07-02T11:07:42;21.70;;;7.68;;
63008;SDS011;49099;28.428;-16.488;2023-07-02T11:10:10;23.40;;;7.60;;
63008;SDS011;49099;28.428;-16.488;2023-07-02T11:12:43;21.05;;;7.22;;
63008;SDS011;49099;28.428;-16.488;2023-07-02T11:15:11;21.52;;;7.53;;
63008;SDS011;49099;28.428;-16.488;2023-07-02T11:17:40;24.00;;;7.97;;
63008;SDS011;49099;28.428;-16.488;2023-07-02T11:20:09;23.55;;;8.10;;
63008;SDS011;49099;28.428;-16.488;2023-07-02T11:22:38;25.02;;;7.72;;
63008;SDS011;49099;28.428;-16.488;2023-07-02T11:27:36;24.45;;;7.22;;
63008;SDS011;49099;28.428;-16.488;2023-07-02T11:30:03;26.83;;;7.43;;
63008;SDS011;49099;28.428;-16.488;2023-07-02T11:32:30;20.85;;;6.70;;
63008;SDS011;49099;28.428;-16.488;2023-07-02T11:34:58;24.60;;;7.05;;
63008;SDS011;49099;28.428;-16.488;2023-07-02T11:37:25;28.63;;;8.32;;
63008;SDS011;49099;28.428;-16.488;2023-07-02T11:39:52;23.55;;;7.93;;
63008;SDS011;49099;28.428;-16.488;2023-07-02T11:42:19;21.90;;;7.43;;
63008;SDS011;49099;28.428;-16.488;2023-07-02T11:44:48;22.77;;;7.68;;
63008;SDS011;49099;28.428;-16.488;2023-07-02T11:47:15;24.30;;;7.30;;
63008;SDS011;49099;28.428;-16.488;2023-07-02T11:49:42;22.80;;;7.65;;
63008;SDS011;49099;28.428;-16.488;2023-07-02T11:52:09;19.05;;;7.38;;
63008;SDS011;49099;28.428;-16.488;2023-07-02T11:54:38;22.55;;;7.43;;
63008;SDS011;49099;28.428;-16.488;2023-07-02T11:57:06;21.20;;;7.38;;
63008;SDS011;49099;28.428;-16.488;2023-07-02T11:59:33;18.83;;;7.10;;
63008;SDS011;49099;28.428;-16.488;2023-07-02T12:02:00;22.15;;;7.88;;
63008;SDS011;49099;28.428;-16.488;2023-07-02T12:04:28;19.55;;;6.95;;
63008;SDS011;49099;28.428;-16.488;2023-07-02T12:06:55;22.10;;;7.55;;
63008;SDS011;49099;28.428;-16.488;2023-07-02T12:09:22;18.73;;;7.63;;
63008;SDS011;49099;28.428;-16.488;2023-07-02T12:11:50;21.45;;;7.38;;
63008;SDS011;49099;28.428;-16.488;2023-07-02T12:14:17;18.25;;;7.07;;
63008;SDS011;49099;28.428;-16.488;2023-07-02T12:16:44;23.13;;;7.82;;
63008;SDS011;49099;28.428;-16.488;2023-07-02T12:19:11;18.52;;;6.95;;
63008;SDS011;49099;28.428;-16.488;2023-07-02T12:21:38;18.33;;;6.88;;
63008;SDS011;49099;28.428;-16.488;2023-07-02T12:24:05;21.05;;;7.00;;
63008;SDS011;49099;28.428;-16.488;2023-07-02T12:26:36;25.98;;;7.93;;
63008;SDS011;49099;28.428;-16.488;2023-07-02T12:29:03;23.02;;;7.93;;
63008;SDS011;49099;28.428;-16.488;2023-07-02T12:31:31;21.85;;;7.30;;
63008;SDS011;49099;28.428;-16.488;2023-07-02T12:33:58;19.80;;;7.22;;
63008;SDS011;49099;28.428;-16.488;2023-07-02T12:36:25;24.65;;;7.03;;
63008;SDS011;49099;28.428;-16.488;2023-07-02T12:38:52;24.23;;;7.47;;
63008;SDS011;49099;28.428;-16.488;2023-07-02T12:41:19;20.33;;;7.30;;
63008;SDS011;49099;28.428;-16.488;2023-07-02T12:43:46;19.70;;;7.80;;
63008;SDS011;49099;28.428;-16.488;2023-07-02T12:46:15;26.15;;;8.48;;
63008;SDS011;49099;28.428;-16.488;2023-07-02T12:48:42;20.00;;;7.60;;
63008;SDS011;49099;28.428;-16.488;2023-07-02T12:51:10;19.25;;;7.25;;
63008;SDS011;49099;28.428;-16.488;2023-07-02T12:53:38;20.83;;;7.38;;
63008;SDS011;49099;28.428;-16.488;2023-07-02T12:56:05;21.08;;;7.95;;
63008;SDS011;49099;28.428;-16.488;2023-07-02T12:58:32;19.75;;;7.60;;
63008;SDS011;49099;28.428;-16.488;2023-07-02T13:00:59;18.88;;;7.30;;
63008;SDS011;49099;28.428;-16.488;2023-07-02T13:03:29;24.35;;;7.97;;
63008;SDS011;49099;28.428;-16.488;2023-07-02T13:05:57;19.80;;;7.47;;
63008;SDS011;49099;28.428;-16.488;2023-07-02T13:08:24;20.63;;;7.25;;
63008;SDS011;49099;28.428;-16.488;2023-07-02T13:10:51;25.02;;;7.43;;
63008;SDS011;49099;28.428;-16.488;2023-07-02T13:13:18;21.90;;;7.70;;
63008;SDS011;49099;28.428;-16.488;2023-07-02T13:15:50;23.50;;;7.50;;
63008;SDS011;49099;28.428;-16.488;2023-07-02T13:18:17;19.80;;;7.53;;
63008;SDS011;49099;28.428;-16.488;2023-07-02T13:20:45;22.55;;;7.05;;
63008;SDS011;49099;28.428;-16.488;2023-07-02T13:23:12;22.83;;;7.05;;
63008;SDS011;49099;28.428;-16.488;2023-07-02T13:25:39;21.63;;;6.93;;
63008;SDS011;49099;28.428;-16.488;2023-07-02T13:28:07;21.55;;;6.95;;
63008;SDS011;49099;28.428;-16.488;2023-07-02T13:30:34;22.17;;;6.80;;
63008;SDS011;49099;28.428;-16.488;2023-07-02T13:33:01;22.23;;;7.35;;
63008;SDS011;49099;28.428;-16.488;2023-07-02T13:35:28;22.60;;;7.32;;
63008;SDS011;49099;28.428;-16.488;2023-07-02T13:37:58;20.35;;;6.65;;
63008;SDS011;49099;28.428;-16.488;2023-07-02T13:40:26;20.85;;;6.47;;
63008;SDS011;49099;28.428;-16.488;2023-07-02T13:42:53;21.83;;;7.50;;
63008;SDS011;49099;28.428;-16.488;2023-07-02T13:45:20;17.38;;;6.28;;
63008;SDS011;49099;28.428;-16.488;2023-07-02T13:47:47;22.45;;;6.22;;
63008;SDS011;49099;28.428;-16.488;2023-07-02T13:50:14;18.98;;;6.55;;
63008;SDS011;49099;28.428;-16.488;2023-07-02T13:52:41;20.90;;;6.75;;
63008;SDS011;49099;28.428;-16.488;2023-07-02T13:55:09;22.17;;;7.30;;
63008;SDS011;49099;28.428;-16.488;2023-07-02T13:57:36;19.92;;;7.03;;
63008;SDS011;49099;28.428;-16.488;2023-07-02T14:00:03;19.63;;;7.15;;
63008;SDS011;49099;28.428;-16.488;2023-07-02T14:02:31;20.60;;;7.18;;
63008;SDS011;49099;28.428;-16.488;2023-07-02T14:04:59;21.17;;;6.95;;
63008;SDS011;49099;28.428;-16.488;2023-07-02T14:07:27;20.80;;;7.10;;
63008;SDS011;49099;28.428;-16.488;2023-07-02T14:09:54;17.55;;;6.68;;
63008;SDS011;49099;28.428;-16.488;2023-07-02T14:12:22;24.05;;;6.90;;
63008;SDS011;49099;28.428;-16.488;2023-07-02T14:14:49;19.88;;;6.95;;
63008;SDS011;49099;28.428;-16.488;2023-07-02T14:17:16;18.65;;;6.75;;